LIMW/AOT METAR and TAF weather

Enter ICAO airport designator
Station Type Date Time Source
LIMW METAR 2021/04/14 14:20 UTC NOAA

LIMW 141420Z AUTO 10019KT 9999 NCD 13/M04 Q1016


Station Type Date Time Source
LIMW Decoded METAR 2021/04/14 14:20 UTC NOAA

Station name not available
Apr 14, 2021 - 10:20 AM EDT / 2021.04.14 1420 UTC
Wind: from the E (100 degrees) at 22 MPH (19 KT):0
Visibility: greater than 7 mile(s):0
Temperature: 55 F (13 C)
Dew Point: 24 F (-4 C)
Relative Humidity: 30%
Pressure (altimeter): 30.00 in. Hg (1016 hPa)
ob: LIMW 141420Z AUTO 10019KT 9999 NCD 13/M04 Q1016
cycle: 14

Station Type Date Time Source
LIMW TAF UTC NOAA

Error!

Example: see airport list